Time;durP1;ratioP1;P1;durP2;ratioP2;P2;SDS_P1;SDS_P2;PMS_P1;PMS_P2;Temp;Humidity;BMP_temperature;BMP_pressure;BME280_temperature;BME280_humidity;BME280_pressure;Samples;Min_cycle;Max_cycle;Signal;HPM_P1;HPM_P2
2021/01/30 00:01:00;;;;;;;11.87;3.47;;;6.80;99.90;;;;;;5016814;28;20200;-70
2021/01/30 00:03:27;;;;;;;13.20;3.33;;;6.60;99.90;;;;;;5014387;28;20217;-69
2021/01/30 00:05:53;;;;;;;12.57;3.60;;;6.50;99.90;;;;;;5013272;28;20297;-64
2021/01/30 00:08:20;;;;;;;11.93;3.50;;;6.40;99.90;;;;;;5015821;28;20208;-61
2021/01/30 00:10:46;;;;;;;13.13;3.40;;;6.40;99.90;;;;;;5017470;28;20295;-71
2021/01/30 00:13:13;;;;;;;10.73;3.83;;;6.30;99.90;;;;;;5017902;28;20200;-70
2021/01/30 00:15:40;;;;;;;6.97;3.20;;;6.20;99.90;;;;;;5015077;28;20251;-68
2021/01/30 00:18:08;;;;;;;11.33;3.80;;;6.20;99.90;;;;;;5014908;28;20232;-63
2021/01/30 00:20:37;;;;;;;10.50;3.47;;;6.10;99.90;;;;;;5016075;28;20212;-62
2021/01/30 00:23:04;;;;;;;9.90;3.17;;;6.10;99.90;;;;;;5018003;28;21278;-63
2021/01/30 00:25:33;;;;;;;10.20;3.50;;;6.00;99.90;;;;;;5016608;28;20573;-62
2021/01/30 00:28:00;;;;;;;7.17;3.47;;;6.00;99.90;;;;;;5014426;28;20205;-64
2021/01/30 00:30:28;;;;;;;6.23;3.37;;;6.00;99.90;;;;;;5015415;28;20212;-66
2021/01/30 00:32:56;;;;;;;10.60;4.67;;;6.00;99.90;;;;;;5025895;28;20204;-64
2021/01/30 00:35:25;;;;;;;6.43;3.53;;;5.90;99.90;;;;;;5046972;28;20226;-61
2021/01/30 00:37:52;;;;;;;10.70;3.73;;;5.90;99.90;;;;;;5032583;28;20201;-68
2021/01/30 00:40:20;;;;;;;11.73;3.93;;;5.90;99.90;;;;;;5015265;28;20242;-63
2021/01/30 00:42:47;;;;;;;13.63;4.60;;;5.90;99.90;;;;;;5016998;28;20208;-62
2021/01/30 00:45:16;;;;;;;14.30;4.90;;;5.80;99.90;;;;;;5014554;28;20227;-61
2021/01/30 00:47:42;;;;;;;14.43;4.70;;;5.80;99.90;;;;;;5016517;28;20209;-62
2021/01/30 00:50:10;;;;;;;10.10;5.40;;;5.80;99.90;;;;;;5014505;28;20211;-62
2021/01/30 00:52:40;;;;;;;19.17;6.43;;;5.80;99.90;;;;;;5015777;28;20216;-64
2021/01/30 00:55:08;;;;;;;16.23;6.37;;;5.70;99.90;;;;;;5015891;28;20228;-62
2021/01/30 00:57:34;;;;;;;12.97;5.73;;;5.70;99.90;;;;;;5012043;28;20208;-63
2021/01/30 01:00:01;;;;;;;13.63;5.77;;;5.70;99.90;;;;;;5013474;28;20733;-66
2021/01/30 01:02:27;;;;;;;8.83;5.90;;;5.70;99.90;;;;;;5015417;28;20651;-62
2021/01/30 01:04:53;;;;;;;12.03;6.63;;;5.60;99.90;;;;;;5014668;28;20228;-62
2021/01/30 01:07:20;;;;;;;12.13;6.20;;;5.60;99.90;;;;;;5017024;28;20208;-61
2021/01/30 01:09:47;;;;;;;12.77;6.23;;;5.60;99.90;;;;;;5016380;28;20208;-64
2021/01/30 01:12:14;;;;;;;9.37;5.50;;;5.50;99.90;;;;;;5012691;28;20208;-71
2021/01/30 01:14:40;;;;;;;12.70;6.07;;;5.60;99.90;;;;;;5013989;28;20227;-63
2021/01/30 01:17:07;;;;;;;11.20;6.60;;;5.60;99.90;;;;;;5012559;28;20586;-62
2021/01/30 01:19:33;;;;;;;11.70;5.80;;;5.60;99.90;;;;;;5015688;28;20192;-65
2021/01/30 01:22:00;;;;;;;15.23;5.87;;;5.50;99.90;;;;;;5012692;28;20274;-62
2021/01/30 01:24:26;;;;;;;10.43;6.73;;;5.50;99.90;;;;;;5014739;28;20224;-69
2021/01/30 01:26:54;;;;;;;9.20;6.83;;;5.40;99.90;;;;;;5015722;28;20192;-68
2021/01/30 01:29:22;;;;;;;9.80;6.27;;;5.40;99.90;;;;;;5015844;28;20811;-63
2021/01/30 01:31:57;;;;;;;15.57;7.43;;;5.30;99.90;;;;;;5015049;28;20206;-59
2021/01/30 01:34:25;;;;;;;14.23;8.60;;;5.30;99.90;;;;;;5011520;28;20223;-66
2021/01/30 01:36:59;;;;;;;15.90;9.00;;;5.30;99.90;;;;;;5014583;28;20196;-65
2021/01/30 01:39:26;;;;;;;17.77;8.00;;;5.20;99.90;;;;;;5012097;28;20259;-61
2021/01/30 01:41:59;;;;;;;19.70;8.13;;;5.20;99.90;;;;;;5014050;28;20202;-63
2021/01/30 01:44:25;;;;;;;13.37;7.23;;;5.20;99.90;;;;;;5012445;28;20278;-60
2021/01/30 01:46:54;;;;;;;12.53;8.07;;;5.20;99.90;;;;;;5013339;28;20193;-65
2021/01/30 01:49:26;;;;;;;15.73;9.13;;;5.10;99.90;;;;;;5011898;28;20201;-71
2021/01/30 01:52:03;;;;;;;35.63;18.63;;;5.10;99.90;;;;;;5010434;28;21982;-65
2021/01/30 01:54:32;;;;;;;35.87;20.07;;;5.00;99.90;;;;;;5014797;28;20201;-62
2021/01/30 01:57:07;;;;;;;35.60;19.73;;;4.90;99.90;;;;;;5015444;28;20662;-63
2021/01/30 01:59:38;;;;;;;32.33;19.97;;;4.80;99.90;;;;;;5014701;28;20235;-62
2021/01/30 02:02:04;;;;;;;27.73;16.57;;;4.80;99.90;;;;;;5012019;28;20204;-61
2021/01/30 02:04:32;;;;;;;24.80;15.50;;;4.70;99.90;;;;;;5011343;28;20278;-63
2021/01/30 02:07:00;;;;;;;20.77;14.03;;;4.60;99.90;;;;;;5012659;28;20619;-63
2021/01/30 02:09:27;;;;;;;23.77;11.53;;;4.50;99.90;;;;;;5012832;28;20201;-71
2021/01/30 02:12:01;;;;;;;23.73;12.00;;;4.50;99.90;;;;;;5011309;28;20201;-66
2021/01/30 02:14:31;;;;;;;20.17;12.60;;;4.40;99.90;;;;;;5013393;28;20663;-68
2021/01/30 02:17:06;;;;;;;18.60;12.60;;;4.30;99.90;;;;;;5011633;28;21177;-68
2021/01/30 02:20:08;;;;;;;22.60;12.30;;;4.30;99.90;;;;;;5011549;28;20238;-63
2021/01/30 02:23:11;;;;;;;33.33;17.20;;;4.30;99.90;;;;;;5013739;28;20666;-64
2021/01/30 02:26:07;;;;;;;29.03;17.53;;;4.30;99.90;;;;;;4983805;28;20212;-63
2021/01/30 02:28:44;;;;;;;32.10;18.30;;;4.30;99.90;;;;;;5012327;28;20193;-68
2021/01/30 02:31:37;;;;;;;25.00;16.73;;;4.20;99.90;;;;;;5012688;28;20200;-63
2021/01/30 02:34:21;;;;;;;24.43;15.00;;;4.10;99.90;;;;;;5015279;28;20263;-71
2021/01/30 02:36:56;;;;;;;24.97;15.83;;;3.90;99.90;;;;;;5013962;28;20188;-64
2021/01/30 02:39:27;;;;;;;28.93;15.20;;;3.80;99.90;;;;;;5011984;28;20211;-64
2021/01/30 02:41:58;;;;;;;23.73;13.67;;;3.60;99.90;;;;;;5010636;28;20192;-66
2021/01/30 02:44:26;;;;;;;22.27;13.13;;;3.50;99.90;;;;;;5013017;28;20247;-63
2021/01/30 02:46:56;;;;;;;22.73;11.97;;;3.50;99.90;;;;;;5010289;28;20233;-60
2021/01/30 02:49:27;;;;;;;16.13;11.57;;;3.40;99.90;;;;;;5013723;28;20196;-60
2021/01/30 02:52:04;;;;;;;19.40;10.60;;;3.40;99.90;;;;;;5014164;28;20196;-62
2021/01/30 02:54:33;;;;;;;17.57;11.40;;;3.30;99.90;;;;;;5011433;28;20200;-62
2021/01/30 02:57:00;;;;;;;27.20;14.57;;;3.20;99.90;;;;;;5012409;28;20305;-61
2021/01/30 02:59:29;;;;;;;22.23;13.17;;;3.20;99.90;;;;;;5012094;28;20234;-63
2021/01/30 03:01:55;;;;;;;22.87;12.53;;;3.10;99.90;;;;;;5013697;28;20205;-66
2021/01/30 03:04:26;;;;;;;18.70;11.87;;;3.00;99.90;;;;;;5013152;28;20302;-62
2021/01/30 03:07:16;;;;;;;22.17;12.10;;;2.90;99.90;;;;;;5011493;28;20193;-62
2021/01/30 03:09:50;;;;;;;22.93;12.73;;;2.90;99.90;;;;;;5013054;28;20188;-63
2021/01/30 03:12:24;;;;;;;21.17;12.77;;;2.80;99.90;;;;;;5013739;28;20189;-70
2021/01/30 03:14:55;;;;;;;23.40;13.00;;;2.80;99.90;;;;;;5012739;28;20219;-63
2021/01/30 03:17:25;;;;;;;23.70;13.77;;;2.80;99.90;;;;;;5011939;28;20235;-66
2021/01/30 03:19:54;;;;;;;19.47;11.40;;;2.80;99.90;;;;;;5011734;28;20205;-70
2021/01/30 03:22:23;;;;;;;23.03;13.57;;;2.80;99.90;;;;;;5014139;28;20595;-69
2021/01/30 03:24:51;;;;;;;28.00;15.03;;;2.80;99.90;;;;;;5014732;28;20231;-68
2021/01/30 03:27:21;;;;;;;28.17;15.37;;;2.80;99.90;;;;;;5016096;28;20210;-67
2021/01/30 03:29:47;;;;;;;30.00;15.30;;;2.80;99.90;;;;;;5016504;28;20204;-70
2021/01/30 03:32:15;;;;;;;27.73;13.80;;;2.80;99.90;;;;;;5018016;28;20216;-69
2021/01/30 03:34:41;;;;;;;21.77;12.47;;;2.70;99.90;;;;;;5015864;28;20693;-69
2021/01/30 03:37:08;;;;;;;19.30;11.40;;;2.70;99.90;;;;;;5016558;28;20243;-73
2021/01/30 03:39:35;;;;;;;14.53;8.73;;;2.50;99.90;;;;;;5014678;28;20207;-69
2021/01/30 03:42:01;;;;;;;15.17;8.80;;;2.40;99.90;;;;;;5013639;28;20212;-63
2021/01/30 03:44:28;;;;;;;15.53;8.13;;;2.30;99.90;;;;;;5017812;28;20720;-69
2021/01/30 03:46:54;;;;;;;13.63;8.37;;;2.20;99.90;;;;;;5015855;28;20200;-68
2021/01/30 03:49:21;;;;;;;20.33;9.70;;;2.20;99.90;;;;;;5017226;28;20193;-63
2021/01/30 03:51:47;;;;;;;15.80;9.33;;;2.20;99.90;;;;;;5014584;28;20201;-62
2021/01/30 03:54:14;;;;;;;15.83;8.83;;;2.20;99.90;;;;;;5016441;28;20205;-62
2021/01/30 03:56:43;;;;;;;14.50;9.03;;;2.20;99.90;;;;;;5014784;28;20672;-64
2021/01/30 03:59:10;;;;;;;17.40;9.40;;;2.20;99.90;;;;;;5018194;28;20673;-61
2021/01/30 04:01:37;;;;;;;14.27;9.43;;;2.20;99.90;;;;;;5018268;28;20207;-65
2021/01/30 04:04:04;;;;;;;15.20;9.03;;;2.20;99.90;;;;;;5013873;28;20311;-61
2021/01/30 04:06:30;;;;;;;23.50;10.37;;;2.20;99.90;;;;;;5015308;28;20208;-62
2021/01/30 04:08:57;;;;;;;20.00;11.23;;;2.20;99.90;;;;;;5015897;28;20201;-62
2021/01/30 04:11:25;;;;;;;20.43;11.17;;;2.10;99.90;;;;;;5016785;28;20216;-62
2021/01/30 04:13:53;;;;;;;19.50;11.47;;;2.10;99.90;;;;;;5016882;28;20201;-62
2021/01/30 04:16:19;;;;;;;19.80;11.37;;;2.10;99.90;;;;;;5014986;28;20295;-62
2021/01/30 04:18:46;;;;;;;18.23;10.93;;;2.20;99.90;;;;;;5014265;28;20569;-65
2021/01/30 04:21:13;;;;;;;20.33;11.73;;;2.20;99.90;;;;;;5017738;28;20208;-68
2021/01/30 04:23:39;;;;;;;20.37;10.77;;;2.10;99.90;;;;;;5011965;28;20221;-60
2021/01/30 04:26:06;;;;;;;21.23;11.73;;;2.10;99.90;;;;;;5019073;28;20566;-65
2021/01/30 04:28:32;;;;;;;19.37;11.33;;;2.20;99.90;;;;;;5025257;28;20200;-60
2021/01/30 04:30:59;;;;;;;22.43;12.67;;;2.20;99.90;;;;;;5030096;28;20196;-60
2021/01/30 04:33:26;;;;;;;18.53;11.57;;;2.20;99.90;;;;;;5021580;28;20204;-63
2021/01/30 04:35:53;;;;;;;19.57;11.07;;;2.10;99.90;;;;;;5019874;28;20207;-63
2021/01/30 04:38:19;;;;;;;19.97;11.90;;;2.10;99.90;;;;;;5021186;28;20243;-60
2021/01/30 04:40:47;;;;;;;19.90;11.97;;;2.00;99.90;;;;;;5023242;28;20208;-63
2021/01/30 04:43:19;;;;;;;16.87;11.00;;;2.00;99.90;;;;;;5021295;28;20204;-61
2021/01/30 04:46:08;;;;;;;20.27;11.10;;;2.00;99.90;;;;;;5024300;28;20208;-69
2021/01/30 04:48:58;;;;;;;20.20;11.77;;;2.00;99.90;;;;;;5022389;28;20824;-64
2021/01/30 04:51:32;;;;;;;19.40;11.90;;;1.90;99.90;;;;;;5021554;28;20753;-62
2021/01/30 04:54:15;;;;;;;20.73;12.27;;;1.80;99.90;;;;;;5021458;28;20258;-63
2021/01/30 04:56:58;;;;;;;20.53;12.70;;;1.80;99.90;;;;;;5022552;28;20254;-65
2021/01/30 04:59:46;;;;;;;21.73;13.60;;;1.80;99.90;;;;;;5023635;28;20197;-62
2021/01/30 05:02:20;;;;;;;22.67;13.53;;;1.70;99.90;;;;;;5021340;28;20203;-68
2021/01/30 05:04:51;;;;;;;23.97;14.87;;;1.70;99.90;;;;;;5031357;28;20216;-63
2021/01/30 05:07:26;;;;;;;23.33;14.27;;;1.70;99.90;;;;;;5023941;28;20664;-60
2021/01/30 05:09:55;;;;;;;24.77;15.23;;;1.60;99.90;;;;;;5023418;28;20200;-61
2021/01/30 05:12:27;;;;;;;24.83;16.03;;;1.60;99.90;;;;;;5023405;28;20205;-61
2021/01/30 05:15:12;;;;;;;26.60;16.93;;;1.60;99.90;;;;;;5013257;28;20200;-62
2021/01/30 05:17:49;;;;;;;28.40;16.77;;;1.60;99.90;;;;;;5014626;28;20326;-62
2021/01/30 05:20:16;;;;;;;28.27;18.37;;;1.50;99.90;;;;;;5017226;28;20196;-62
2021/01/30 05:22:46;;;;;;;27.57;16.37;;;1.50;99.90;;;;;;5011550;28;20553;-63
2021/01/30 05:25:18;;;;;;;29.13;17.93;;;1.50;99.90;;;;;;5011947;28;20228;-61
2021/01/30 05:28:16;;;;;;;29.63;17.33;;;1.50;99.90;;;;;;5010850;28;22465;-62
2021/01/30 05:30:54;;;;;;;28.17;17.67;;;1.40;99.90;;;;;;5011249;28;20201;-63
2021/01/30 05:33:38;;;;;;;28.20;17.63;;;1.30;99.90;;;;;;5018371;28;20223;-64
2021/01/30 05:36:10;;;;;;;30.10;17.43;;;1.30;99.90;;;;;;5020761;28;20247;-64
2021/01/30 05:38:57;;;;;;;32.03;18.53;;;1.30;99.90;;;;;;5023331;28;20200;-61
2021/01/30 05:41:42;;;;;;;28.67;18.00;;;1.30;99.90;;;;;;5022390;28;20557;-63
2021/01/30 05:44:13;;;;;;;31.67;18.87;;;1.30;99.90;;;;;;5022838;28;20212;-61
2021/01/30 05:46:40;;;;;;;30.03;18.60;;;1.30;99.90;;;;;;5015271;28;20193;-65
2021/01/30 05:49:14;;;;;;;33.13;19.20;;;1.30;99.90;;;;;;5016474;28;20246;-61
2021/01/30 05:51:45;;;;;;;31.40;19.37;;;1.30;99.90;;;;;;5019202;28;20263;-70
2021/01/30 05:54:12;;;;;;;33.93;19.70;;;1.30;99.90;;;;;;5016431;28;22020;-60
2021/01/30 05:56:40;;;;;;;30.13;19.10;;;1.30;99.90;;;;;;5008345;28;20271;-60
2021/01/30 05:59:11;;;;;;;33.37;19.80;;;1.30;99.90;;;;;;5011576;28;20199;-60
2021/01/30 06:01:38;;;;;;;34.30;20.07;;;1.30;99.90;;;;;;5017601;28;20207;-60
2021/01/30 06:04:07;;;;;;;37.83;22.20;;;1.40;99.90;;;;;;5009044;28;20228;-64
2021/01/30 06:06:37;;;;;;;35.53;21.17;;;1.30;99.90;;;;;;5008631;28;20220;-62
2021/01/30 06:09:07;;;;;;;35.77;21.23;;;1.30;99.90;;;;;;5009642;28;20329;-63
2021/01/30 06:11:47;;;;;;;37.70;21.37;;;1.30;99.90;;;;;;5018260;28;20199;-62
2021/01/30 06:14:29;;;;;;;39.67;22.33;;;1.30;99.90;;;;;;5016964;28;20199;-62
2021/01/30 06:16:59;;;;;;;40.70;22.83;;;1.30;99.90;;;;;;5009768;28;20786;-60
2021/01/30 06:19:27;;;;;;;39.97;23.17;;;1.30;99.90;;;;;;5011495;28;22046;-60
2021/01/30 06:22:12;;;;;;;37.67;22.67;;;1.30;99.90;;;;;;5008791;28;20200;-62
2021/01/30 06:24:44;;;;;;;40.37;22.93;;;1.30;99.90;;;;;;5010740;28;20219;-62
2021/01/30 06:27:26;;;;;;;40.70;22.57;;;1.20;99.90;;;;;;5009738;28;20196;-63
2021/01/30 06:29:57;;;;;;;36.43;21.40;;;1.20;99.90;;;;;;5007737;28;20196;-61
2021/01/30 06:32:32;;;;;;;44.33;22.60;;;1.20;99.90;;;;;;5011155;28;20192;-61
2021/01/30 06:35:11;;;;;;;44.90;24.83;;;1.20;99.90;;;;;;5008450;28;20200;-59
2021/01/30 06:37:44;;;;;;;45.50;25.60;;;1.20;99.90;;;;;;5010572;28;20196;-60
2021/01/30 06:40:22;;;;;;;45.37;23.80;;;1.20;99.90;;;;;;5008931;28;20200;-59
2021/01/30 06:42:53;;;;;;;46.13;25.83;;;1.20;99.90;;;;;;5009647;28;20207;-62
2021/01/30 06:45:28;;;;;;;45.33;25.30;;;1.20;99.90;;;;;;5009642;28;20227;-62
2021/01/30 06:47:54;;;;;;;43.53;25.33;;;1.20;99.90;;;;;;5008391;28;20195;-61
2021/01/30 06:50:38;;;;;;;45.07;24.33;;;1.20;99.90;;;;;;5008772;28;20204;-62
2021/01/30 06:53:16;;;;;;;45.87;25.07;;;1.20;99.90;;;;;;5006397;28;20189;-61
2021/01/30 06:55:43;;;;;;;45.80;24.80;;;1.20;99.90;;;;;;5009622;28;20201;-61
2021/01/30 06:58:19;;;;;;;46.43;26.30;;;1.20;99.90;;;;;;5008611;28;20207;-60
2021/01/30 07:00:46;;;;;;;43.80;25.97;;;1.20;99.90;;;;;;5010857;28;20200;-61
2021/01/30 07:03:19;;;;;;;47.03;25.93;;;1.20;99.90;;;;;;5013917;28;20204;-60
2021/01/30 07:05:52;;;;;;;47.30;24.60;;;1.10;99.90;;;;;;5013919;28;22368;-65
2021/01/30 07:08:56;;;;;;;49.93;26.13;;;1.10;99.90;;;;;;5015489;28;20258;-67
2021/01/30 07:11:47;;;;;;;47.43;27.17;;;1.10;99.90;;;;;;5015518;28;20219;-64
2021/01/30 07:14:34;;;;;;;45.17;25.33;;;1.10;99.90;;;;;;5019063;28;20272;-61
2021/01/30 07:17:06;;;;;;;49.43;26.53;;;1.00;99.90;;;;;;5004812;28;20232;-67
2021/01/30 07:19:47;;;;;;;49.03;27.40;;;1.00;99.90;;;;;;5018228;28;20196;-63
2021/01/30 07:22:18;;;;;;;42.43;24.87;;;1.00;99.90;;;;;;5012912;28;20201;-61
2021/01/30 07:24:52;;;;;;;48.27;25.50;;;1.00;99.90;;;;;;5017652;28;20576;-61
2021/01/30 07:27:25;;;;;;;47.57;26.60;;;1.00;99.90;;;;;;5013540;28;20261;-62
2021/01/30 07:29:56;;;;;;;50.73;26.83;;;1.00;99.90;;;;;;5012530;28;20200;-61
2021/01/30 07:32:28;;;;;;;45.23;24.90;;;1.00;99.90;;;;;;5012017;28;20684;-62
2021/01/30 07:35:14;;;;;;;50.70;27.00;;;1.00;99.90;;;;;;5009872;28;20200;-63
2021/01/30 07:37:52;;;;;;;49.60;26.83;;;1.00;99.90;;;;;;5011136;28;20189;-71
2021/01/30 07:40:23;;;;;;;40.57;22.63;;;1.00;99.90;;;;;;5015263;28;20654;-65
2021/01/30 07:42:56;;;;;;;48.07;25.67;;;1.00;99.90;;;;;;5014029;28;20203;-68
2021/01/30 07:45:28;;;;;;;48.37;26.77;;;1.00;99.90;;;;;;5020343;28;20228;-69
2021/01/30 07:48:05;;;;;;;46.63;25.90;;;1.00;99.90;;;;;;5017592;28;20201;-73
2021/01/30 07:50:34;;;;;;;49.93;26.53;;;1.00;99.90;;;;;;5010844;28;20200;-65
2021/01/30 07:53:07;;;;;;;45.50;26.03;;;1.10;99.90;;;;;;5012716;28;20205;-71
2021/01/30 07:55:35;;;;;;;43.70;24.40;;;1.10;99.90;;;;;;5014047;28;20200;-67
2021/01/30 07:58:18;;;;;;;45.67;22.43;;;1.00;99.90;;;;;;5016483;28;20205;-75
2021/01/30 08:00:56;;;;;;;41.27;22.53;;;1.00;99.90;;;;;;5022622;28;20553;-65
2021/01/30 08:03:37;;;;;;;45.43;24.07;;;1.00;99.90;;;;;;5021867;28;20199;-64
2021/01/30 08:06:19;;;;;;;45.10;24.50;;;1.00;99.90;;;;;;5023543;28;20205;-64
2021/01/30 08:08:54;;;;;;;45.77;23.20;;;0.90;99.90;;;;;;5023294;28;20250;-63
2021/01/30 08:11:26;;;;;;;45.17;23.47;;;0.90;99.90;;;;;;5023113;28;20219;-62
2021/01/30 08:14:01;;;;;;;44.67;22.80;;;0.90;99.90;;;;;;5022203;28;20200;-70
2021/01/30 08:16:38;;;;;;;43.93;23.13;;;0.90;99.90;;;;;;5021677;28;20200;-63
2021/01/30 08:19:10;;;;;;;47.27;23.43;;;1.00;99.90;;;;;;5031558;28;20630;-65
2021/01/30 08:21:43;;;;;;;44.63;23.67;;;0.90;99.90;;;;;;5031302;28;20219;-66
2021/01/30 08:24:19;;;;;;;46.40;23.13;;;1.00;99.90;;;;;;5034965;28;20666;-71
2021/01/30 08:26:55;;;;;;;46.03;24.77;;;1.00;99.90;;;;;;5021749;28;20223;-74
2021/01/30 08:29:26;;;;;;;45.07;22.80;;;1.00;99.90;;;;;;5021520;28;20193;-70
2021/01/30 08:31:55;;;;;;;42.30;22.30;;;1.00;99.90;;;;;;5023493;28;20196;-62
2021/01/30 08:34:36;;;;;;;47.83;24.00;;;1.00;99.90;;;;;;5020378;28;20215;-67
2021/01/30 08:37:34;;;;;;;42.57;22.37;;;1.00;99.90;;;;;;5022607;28;20200;-63
2021/01/30 08:40:10;;;;;;;44.90;24.03;;;1.00;99.90;;;;;;5021757;28;20204;-68
2021/01/30 08:42:39;;;;;;;48.17;24.10;;;1.00;99.90;;;;;;5021683;28;20200;-64
2021/01/30 08:45:08;;;;;;;47.60;24.07;;;1.00;99.90;;;;;;5018918;28;20224;-63
2021/01/30 08:47:37;;;;;;;43.57;23.30;;;1.00;99.90;;;;;;5022459;28;20236;-65
2021/01/30 08:50:12;;;;;;;44.07;22.63;;;0.90;99.90;;;;;;5021349;28;20196;-63
2021/01/30 08:52:50;;;;;;;49.50;25.27;;;0.90;99.90;;;;;;5021282;28;20212;-68
2021/01/30 08:55:39;;;;;;;54.10;25.57;;;1.00;99.90;;;;;;5021847;28;20555;-61
2021/01/30 08:58:06;;;;;;;46.83;24.17;;;0.90;99.90;;;;;;5021761;28;20615;-63
2021/01/30 09:00:54;;;;;;;51.27;25.47;;;0.90;99.90;;;;;;5019616;28;20204;-65
2021/01/30 09:03:47;;;;;;;47.60;25.07;;;0.90;99.90;;;;;;5020105;28;20197;-66
2021/01/30 09:06:54;;;;;;;46.30;23.70;;;0.90;99.90;;;;;;5028658;28;20608;-62
2021/01/30 09:09:22;;;;;;;48.67;24.17;;;1.00;99.90;;;;;;5004169;28;20298;-69
2021/01/30 09:11:50;;;;;;;42.60;22.30;;;0.90;99.90;;;;;;5037473;28;20196;-73
2021/01/30 09:14:39;;;;;;;47.73;24.23;;;1.00;99.90;;;;;;5034823;28;20200;-64
2021/01/30 09:17:32;;;;;;;49.23;25.97;;;0.90;99.90;;;;;;5046744;28;20354;-68
2021/01/30 09:20:14;;;;;;;48.37;23.67;;;1.00;99.90;;;;;;5053959;28;20188;-62
2021/01/30 09:23:04;;;;;;;46.33;24.90;;;1.00;99.90;;;;;;5051838;28;20707;-75
2021/01/30 09:25:41;;;;;;;46.33;21.33;;;1.00;99.90;;;;;;5027749;28;20220;-62
2021/01/30 09:28:16;;;;;;;49.10;25.30;;;0.90;99.90;;;;;;5023044;28;20199;-60
2021/01/30 09:30:52;;;;;;;49.87;24.80;;;0.90;99.90;;;;;;5019655;28;20200;-69
2021/01/30 09:33:23;;;;;;;46.20;24.30;;;0.90;99.90;;;;;;5021956;28;21064;-65
2021/01/30 09:35:50;;;;;;;51.77;25.97;;;0.90;99.90;;;;;;5012238;28;20369;-62
2021/01/30 09:38:25;;;;;;;59.30;33.40;;;0.90;99.90;;;;;;5012202;28;20200;-64
2021/01/30 09:41:09;;;;;;;48.10;25.20;;;0.90;99.90;;;;;;5008547;28;20211;-73
2021/01/30 09:43:35;;;;;;;49.40;26.47;;;0.90;99.90;;;;;;5010538;28;20273;-65
2021/01/30 09:46:06;;;;;;;49.13;26.37;;;0.80;99.90;;;;;;5013030;28;20728;-62
2021/01/30 09:48:36;;;;;;;51.67;26.67;;;0.80;99.90;;;;;;5021322;28;20680;-65
2021/01/30 09:51:05;;;;;;;48.17;25.60;;;0.80;99.90;;;;;;5019305;28;20208;-66
2021/01/30 09:53:36;;;;;;;51.80;25.10;;;0.80;99.90;;;;;;5016867;28;20197;-66
2021/01/30 09:56:08;;;;;;;45.80;24.73;;;0.80;99.90;;;;;;5021434;28;20216;-63
2021/01/30 09:58:36;;;;;;;51.60;25.80;;;0.80;99.90;;;;;;5022926;28;20203;-69
2021/01/30 10:01:07;;;;;;;52.90;27.67;;;0.80;99.90;;;;;;5021559;28;20200;-71
2021/01/30 10:03:37;;;;;;;56.23;27.67;;;0.90;99.90;;;;;;5019033;28;20215;-66
2021/01/30 10:06:12;;;;;;;55.10;26.63;;;0.90;99.90;;;;;;5018353;28;20232;-72
2021/01/30 10:08:38;;;;;;;54.60;28.83;;;0.90;99.90;;;;;;5020813;28;20208;-65
2021/01/30 10:11:08;;;;;;;55.03;29.10;;;0.90;99.90;;;;;;5019660;28;20215;-74
2021/01/30 10:13:36;;;;;;;54.60;28.97;;;0.90;99.90;;;;;;5020736;28;20688;-69
2021/01/30 10:16:08;;;;;;;54.90;28.20;;;0.90;99.90;;;;;;5022798;28;20208;-63
2021/01/30 10:18:42;;;;;;;56.73;28.50;;;0.90;99.90;;;;;;5023637;28;20234;-65
2021/01/30 10:21:10;;;;;;;54.23;26.70;;;1.00;99.90;;;;;;5013544;28;20325;-70
2021/01/30 10:23:41;;;;;;;60.97;29.37;;;1.00;99.90;;;;;;5009335;28;20239;-69
2021/01/30 10:26:10;;;;;;;57.10;28.37;;;1.00;99.90;;;;;;5007893;28;20212;-68
2021/01/30 10:28:46;;;;;;;57.00;29.20;;;1.10;99.90;;;;;;5010942;28;20204;-63
2021/01/30 10:31:15;;;;;;;58.53;29.93;;;1.10;99.90;;;;;;5012358;28;20196;-66
2021/01/30 10:33:50;;;;;;;54.43;28.33;;;1.10;99.90;;;;;;5019026;28;20638;-64
2021/01/30 10:36:20;;;;;;;57.50;27.37;;;1.10;99.90;;;;;;5018197;28;20207;-63
2021/01/30 10:38:48;;;;;;;54.43;28.37;;;1.20;99.90;;;;;;5012633;28;20212;-62
2021/01/30 10:41:18;;;;;;;55.13;27.03;;;1.20;99.90;;;;;;5019283;28;20211;-62
2021/01/30 10:43:47;;;;;;;56.63;27.80;;;1.20;99.90;;;;;;5022512;28;20556;-65
2021/01/30 10:46:28;;;;;;;56.67;28.90;;;1.20;99.90;;;;;;5019353;28;20265;-64
2021/01/30 10:49:03;;;;;;;53.23;28.13;;;1.30;99.90;;;;;;5024029;28;20196;-65
2021/01/30 10:51:32;;;;;;;62.97;29.97;;;1.30;99.90;;;;;;5021391;28;20224;-63
2021/01/30 10:54:24;;;;;;;64.80;27.90;;;1.30;99.90;;;;;;5018159;28;20709;-66
2021/01/30 10:57:22;;;;;;;64.17;28.57;;;1.40;99.90;;;;;;5008480;28;20205;-64
2021/01/30 10:59:52;;;;;;;61.13;29.20;;;1.50;99.90;;;;;;5016755;28;20235;-64
2021/01/30 11:02:36;;;;;;;61.87;28.30;;;1.50;99.90;;;;;;5017638;28;20215;-65
2021/01/30 11:05:13;;;;;;;65.50;29.53;;;1.50;99.90;;;;;;5023175;28;20261;-68
2021/01/30 11:07:43;;;;;;;63.53;29.07;;;1.60;99.90;;;;;;5022318;28;20200;-72
2021/01/30 11:10:22;;;;;;;60.13;29.70;;;1.70;99.90;;;;;;5021902;28;20531;-64
2021/01/30 11:12:49;;;;;;;62.40;29.33;;;1.80;99.90;;;;;;5025230;28;20204;-67
2021/01/30 11:15:20;;;;;;;60.07;29.27;;;1.70;99.90;;;;;;5023686;28;20223;-68
2021/01/30 11:17:48;;;;;;;67.50;31.43;;;1.80;99.90;;;;;;5021500;28;20243;-63
2021/01/30 11:20:38;;;;;;;66.80;30.43;;;1.80;99.90;;;;;;5024015;28;20208;-62
2021/01/30 11:23:05;;;;;;;66.87;32.33;;;1.80;99.90;;;;;;5021441;28;21125;-62
2021/01/30 11:25:37;;;;;;;74.33;33.23;;;1.70;99.90;;;;;;5019038;28;20234;-62
2021/01/30 11:28:04;;;;;;;70.13;31.70;;;1.80;99.90;;;;;;5014278;28;20216;-61
2021/01/30 11:30:30;;;;;;;66.83;31.23;;;1.80;99.90;;;;;;5018663;28;20200;-64
2021/01/30 11:33:01;;;;;;;68.30;31.80;;;1.70;99.90;;;;;;5017559;28;20247;-64
2021/01/30 11:35:33;;;;;;;65.23;32.17;;;1.70;99.90;;;;;;5021912;28;20215;-63
2021/01/30 11:38:03;;;;;;;67.50;32.30;;;1.70;99.90;;;;;;5024009;28;20201;-62
2021/01/30 11:40:29;;;;;;;64.30;30.70;;;1.70;99.90;;;;;;5023101;28;20662;-69
2021/01/30 11:42:56;;;;;;;62.10;31.10;;;1.70;99.90;;;;;;5019887;28;20204;-66
2021/01/30 11:45:23;;;;;;;66.17;32.87;;;1.70;99.90;;;;;;5016649;28;20717;-62
2021/01/30 11:47:49;;;;;;;63.67;32.87;;;1.80;99.90;;;;;;5022125;28;20209;-63
2021/01/30 11:50:17;;;;;;;66.33;33.23;;;1.80;99.90;;;;;;5025973;28;20196;-69
2021/01/30 11:52:44;;;;;;;66.63;31.43;;;1.80;99.90;;;;;;5025137;28;20208;-65
2021/01/30 11:55:11;;;;;;;65.67;32.83;;;1.80;99.90;;;;;;5022093;28;20196;-63
2021/01/30 11:57:37;;;;;;;66.80;32.90;;;1.80;99.90;;;;;;5016360;28;20209;-62
2021/01/30 12:00:06;;;;;;;65.43;33.87;;;1.70;99.90;;;;;;5021607;28;20200;-68
2021/01/30 12:02:35;;;;;;;67.00;30.47;;;1.70;99.90;;;;;;5013192;28;20239;-64
2021/01/30 12:05:02;;;;;;;69.23;33.83;;;1.80;99.90;;;;;;5019517;28;20224;-62
2021/01/30 12:07:30;;;;;;;67.40;34.00;;;1.80;99.90;;;;;;5019289;28;20200;-62
2021/01/30 12:09:57;;;;;;;65.07;33.37;;;1.80;99.90;;;;;;5018696;28;20867;-62
2021/01/30 12:12:23;;;;;;;68.10;33.00;;;1.90;99.90;;;;;;5018667;28;20200;-72
2021/01/30 12:14:50;;;;;;;63.47;32.80;;;1.90;99.90;;;;;;5019009;28;20290;-61
2021/01/30 12:17:21;;;;;;;62.33;31.93;;;1.90;99.90;;;;;;5019289;28;20593;-64
2021/01/30 12:19:47;;;;;;;60.37;30.90;;;1.80;99.90;;;;;;5020942;28;20215;-71
2021/01/30 12:22:14;;;;;;;70.43;35.03;;;1.80;99.90;;;;;;5020324;28;20204;-61
2021/01/30 12:24:41;;;;;;;55.73;31.83;;;1.80;99.90;;;;;;5019459;28;20213;-64
2021/01/30 12:27:08;;;;;;;64.37;34.50;;;1.90;99.90;;;;;;5020896;28;20192;-60
2021/01/30 12:29:34;;;;;;;65.97;36.17;;;1.80;99.90;;;;;;5020044;28;20192;-61
2021/01/30 12:32:01;;;;;;;65.87;32.90;;;1.80;99.90;;;;;;5020067;28;20423;-61
2021/01/30 12:34:27;;;;;;;57.37;30.53;;;1.80;99.90;;;;;;5020584;28;20212;-64
2021/01/30 12:36:54;;;;;;;52.07;31.63;;;1.90;99.90;;;;;;5020183;28;20270;-68
2021/01/30 12:39:20;;;;;;;56.13;30.83;;;1.80;99.90;;;;;;5020173;28;20204;-65
2021/01/30 12:41:48;;;;;;;55.17;31.93;;;1.80;99.90;;;;;;5019014;28;20201;-60
2021/01/30 12:44:15;;;;;;;55.60;32.00;;;1.80;99.90;;;;;;5016313;28;20211;-62
2021/01/30 12:46:46;;;;;;;53.40;31.37;;;1.80;99.90;;;;;;5016780;28;20318;-67
2021/01/30 12:49:13;;;;;;;54.30;31.83;;;1.90;99.90;;;;;;5020265;28;20213;-69
2021/01/30 12:51:40;;;;;;;49.80;30.40;;;1.80;99.90;;;;;;5016730;28;20868;-67
2021/01/30 12:54:08;;;;;;;47.37;28.37;;;1.90;99.90;;;;;;5010761;28;20212;-71
2021/01/30 12:56:35;;;;;;;51.50;28.70;;;1.90;99.90;;;;;;5016856;28;20266;-67
2021/01/30 12:59:03;;;;;;;54.03;30.27;;;1.90;99.90;;;;;;5016862;28;20200;-70
2021/01/30 13:01:31;;;;;;;47.53;28.97;;;1.90;99.90;;;;;;5018571;28;20336;-68
2021/01/30 13:03:57;;;;;;;45.00;28.20;;;2.00;99.90;;;;;;5009995;28;20255;-67